Aérodrome :
LOGIN :

S'inscrire | Disclaimer

   EN    FR    IT 

 










Légende :    VFR   VFR Marginal   IFR   IFR Intensif   IFR Très Intensif
Visi : 
Plafond : 
>= 8 km
>= 3000ft
5 à 8 km
1000 à 3000 ft
1500m à 5 km
500 à 1000 ft
800 à 1500m
200 à 500 ft
< 800m
< 200 ft
Symboles :   Orages  Brouillard  Fortes neiges  Fortes précipitations  Vent > 20 kt
SIGMETs :   Divers  Orages  Givrage  Turbulence  Onde Orograph.  Cendres Volcan.







- Altitude de l'aérodrome : 645 ft
- Code IATA : DLE
- Voir les cartes d'approche


LFGJ - Dole Tavaux

DERNIER METAR :
  • 252000Z AUTO 01011KT 8000 RA OVC008/// ///TCU 04/03 Q1008

METARs EXPIRÉS :
  • 251930Z AUTO 01014KT 8000 RA BKN009/// BKN018/// BKN040/// ///CB 05/04 Q1008
  • 251900Z AUTO 35013KT 7000 +RA BKN007/// OVC011/// ///CB 05/05 Q1007 TEMPO 3000 RA BKN010
  • 251830Z AUTO 36014KT 8000 RA OVC007/// ///TCU 06/05 Q1007 TEMPO 3000 RA BKN010
  • 251800Z AUTO 01014KT 7000 RA OVC007 06/05 Q1007 TEMPO 3000 RA BKN010
  • 251730Z AUTO 36015KT 9000 -RA BKN008/// OVC012/// ///TCU 07/06 Q1007 TEMPO 3000 RA BKN010

TAF AMD TAF LFGJ
Valide du 25 à 18h jusqu'au 26 à 00h UTC


251802Z 2518/2524 36010KT 7000 -RA SCT015 BKN040
TEMPO 2518/2524 3000 RA BKN010
PROB40
TEMPO 2518/2519 01015G25KT 2000 RA BKN006 FEW030TCU
Pas de NOTAMs connus pour ce terrain.



MET'MAP, la Météo Aéronautique d'un coup d'oeil ! - Copyright ORBIFLY Décembre 2007 - Disclaimer

ORBIFLY MET'MAP TEAM :

Programmation & Développement : Alexandra Zaïnal
Conception & Développement : Baudouin d'Aumeries
Co-Programmation & Développement : Marc-Olivier Méhu
Soutien technique & logistique : Manuel Goepfert

Contact : metmap@orbifly.com




SOURCES & CREDITS :

   NOAA